Seneca, Pennsylvania
Current Conditions -  °F | °C
As of 9:55 AM on Thursday 23 Oct 2014 (Local Time) from KFKL Reporting Station
Clear Clear  
Wind Chill: 45°   Ceiling: Unl
Heat Index: 48°   Visibility: 10mi
Dew Point: 37°   Wind: 7mph
Humidity: 66%   Direction: 360°N
Pressure: 30.13"   Gusts: NA
Location:  41.38°N, 79.7°W
Report Text: KFKL 231355Z 36006KT 10SM CLR 09/03 A3013 RMK AO1
Loading
Personal Weather Stations






























Interactive Weather Map
Tropical Storm Tracking
New forecast layout! Learn more

10-Day Weather Forecast

Advertisements
Track Severe Weather on mobile